sensor_id;sensor_type;location;lat;lon;timestamp;P1;durP1;ratioP1;P2;durP2;ratioP2
30539;SDS011;17321;46.312;4.776;2023-05-27T00:02:25;17.45;;;6.85;;
30539;SDS011;17321;46.312;4.776;2023-05-27T00:04:51;12.80;;;6.68;;
30539;SDS011;17321;46.312;4.776;2023-05-27T00:07:17;13.63;;;6.47;;
30539;SDS011;17321;46.312;4.776;2023-05-27T00:09:43;20.13;;;6.85;;
30539;SDS011;17321;46.312;4.776;2023-05-27T00:12:09;8.68;;;6.75;;
30539;SDS011;17321;46.312;4.776;2023-05-27T00:14:36;12.32;;;6.88;;
30539;SDS011;17321;46.312;4.776;2023-05-27T00:17:02;17.35;;;7.30;;
30539;SDS011;17321;46.312;4.776;2023-05-27T00:19:29;15.80;;;6.88;;
30539;SDS011;17321;46.312;4.776;2023-05-27T00:21:56;12.43;;;7.47;;
30539;SDS011;17321;46.312;4.776;2023-05-27T00:24:22;10.60;;;7.13;;
30539;SDS011;17321;46.312;4.776;2023-05-27T00:26:48;8.55;;;6.72;;
30539;SDS011;17321;46.312;4.776;2023-05-27T00:29:18;10.05;;;7.07;;
30539;SDS011;17321;46.312;4.776;2023-05-27T00:31:44;10.48;;;6.82;;
30539;SDS011;17321;46.312;4.776;2023-05-27T00:34:11;11.75;;;6.78;;
30539;SDS011;17321;46.312;4.776;2023-05-27T00:36:37;11.25;;;7.30;;
30539;SDS011;17321;46.312;4.776;2023-05-27T00:39:03;12.27;;;7.20;;
30539;SDS011;17321;46.312;4.776;2023-05-27T00:41:30;13.45;;;7.78;;
30539;SDS011;17321;46.312;4.776;2023-05-27T00:43:57;11.40;;;6.82;;
30539;SDS011;17321;46.312;4.776;2023-05-27T00:46:23;11.98;;;7.10;;
30539;SDS011;17321;46.312;4.776;2023-05-27T00:48:49;12.60;;;7.38;;
30539;SDS011;17321;46.312;4.776;2023-05-27T00:51:15;14.30;;;7.50;;
30539;SDS011;17321;46.312;4.776;2023-05-27T00:53:42;14.77;;;6.47;;
30539;SDS011;17321;46.312;4.776;2023-05-27T00:56:09;10.95;;;7.53;;
30539;SDS011;17321;46.312;4.776;2023-05-27T00:58:36;12.90;;;7.25;;
30539;SDS011;17321;46.312;4.776;2023-05-27T01:01:03;10.77;;;7.25;;
30539;SDS011;17321;46.312;4.776;2023-05-27T01:03:30;13.15;;;7.45;;
30539;SDS011;17321;46.312;4.776;2023-05-27T01:08:51;17.80;;;7.70;;
30539;SDS011;17321;46.312;4.776;2023-05-27T01:11:21;15.93;;;7.72;;
30539;SDS011;17321;46.312;4.776;2023-05-27T01:13:52;11.68;;;7.35;;
30539;SDS011;17321;46.312;4.776;2023-05-27T01:16:20;10.10;;;7.03;;
30539;SDS011;17321;46.312;4.776;2023-05-27T01:18:46;16.02;;;7.45;;
30539;SDS011;17321;46.312;4.776;2023-05-27T01:21:17;14.77;;;7.85;;
30539;SDS011;17321;46.312;4.776;2023-05-27T01:23:43;12.48;;;8.13;;
30539;SDS011;17321;46.312;4.776;2023-05-27T01:26:12;18.90;;;7.47;;
30539;SDS011;17321;46.312;4.776;2023-05-27T01:28:38;11.18;;;7.80;;
30539;SDS011;17321;46.312;4.776;2023-05-27T01:31:29;15.13;;;8.07;;
30539;SDS011;17321;46.312;4.776;2023-05-27T01:33:55;10.73;;;7.32;;
30539;SDS011;17321;46.312;4.776;2023-05-27T01:36:25;14.15;;;7.03;;
30539;SDS011;17321;46.312;4.776;2023-05-27T01:38:52;12.18;;;7.82;;
30539;SDS011;17321;46.312;4.776;2023-05-27T01:41:18;14.38;;;8.07;;
30539;SDS011;17321;46.312;4.776;2023-05-27T01:43:46;10.98;;;7.85;;
30539;SDS011;17321;46.312;4.776;2023-05-27T01:46:13;14.57;;;8.70;;
30539;SDS011;17321;46.312;4.776;2023-05-27T01:48:40;15.15;;;8.52;;
30539;SDS011;17321;46.312;4.776;2023-05-27T01:51:06;16.05;;;7.95;;
30539;SDS011;17321;46.312;4.776;2023-05-27T01:53:32;12.98;;;7.57;;
30539;SDS011;17321;46.312;4.776;2023-05-27T01:55:58;18.02;;;7.80;;
30539;SDS011;17321;46.312;4.776;2023-05-27T01:58:24;15.48;;;8.18;;
30539;SDS011;17321;46.312;4.776;2023-05-27T02:00:50;11.25;;;7.40;;
30539;SDS011;17321;46.312;4.776;2023-05-27T02:03:16;15.00;;;7.35;;
30539;SDS011;17321;46.312;4.776;2023-05-27T02:05:43;16.27;;;8.60;;
30539;SDS011;17321;46.312;4.776;2023-05-27T02:08:10;11.75;;;7.63;;
30539;SDS011;17321;46.312;4.776;2023-05-27T02:10:36;12.82;;;7.47;;
30539;SDS011;17321;46.312;4.776;2023-05-27T02:13:02;11.50;;;7.13;;
30539;SDS011;17321;46.312;4.776;2023-05-27T02:15:28;16.40;;;7.68;;
30539;SDS011;17321;46.312;4.776;2023-05-27T02:17:55;17.88;;;8.18;;
30539;SDS011;17321;46.312;4.776;2023-05-27T02:20:21;10.27;;;7.28;;
30539;SDS011;17321;46.312;4.776;2023-05-27T02:22:49;14.75;;;7.78;;
30539;SDS011;17321;46.312;4.776;2023-05-27T02:25:15;11.82;;;7.35;;
30539;SDS011;17321;46.312;4.776;2023-05-27T02:27:41;13.43;;;7.75;;
30539;SDS011;17321;46.312;4.776;2023-05-27T02:30:12;11.52;;;7.55;;
30539;SDS011;17321;46.312;4.776;2023-05-27T02:32:38;14.18;;;7.57;;
30539;SDS011;17321;46.312;4.776;2023-05-27T02:35:05;14.13;;;8.13;;
30539;SDS011;17321;46.312;4.776;2023-05-27T02:37:32;14.23;;;7.22;;
30539;SDS011;17321;46.312;4.776;2023-05-27T02:39:58;12.35;;;7.20;;
30539;SDS011;17321;46.312;4.776;2023-05-27T02:42:25;12.05;;;7.47;;
30539;SDS011;17321;46.312;4.776;2023-05-27T02:44:51;13.25;;;7.72;;
30539;SDS011;17321;46.312;4.776;2023-05-27T02:47:17;16.20;;;7.97;;
30539;SDS011;17321;46.312;4.776;2023-05-27T02:49:43;14.55;;;7.40;;
30539;SDS011;17321;46.312;4.776;2023-05-27T02:52:09;14.00;;;8.63;;
30539;SDS011;17321;46.312;4.776;2023-05-27T02:54:35;15.88;;;7.82;;
30539;SDS011;17321;46.312;4.776;2023-05-27T02:57:01;16.65;;;7.40;;
30539;SDS011;17321;46.312;4.776;2023-05-27T02:59:27;14.05;;;8.10;;
30539;SDS011;17321;46.312;4.776;2023-05-27T03:01:53;9.65;;;7.90;;
30539;SDS011;17321;46.312;4.776;2023-05-27T03:04:19;12.05;;;7.30;;
30539;SDS011;17321;46.312;4.776;2023-05-27T03:06:46;9.95;;;7.80;;
30539;SDS011;17321;46.312;4.776;2023-05-27T03:09:12;12.73;;;8.07;;
30539;SDS011;17321;46.312;4.776;2023-05-27T03:11:39;16.02;;;7.38;;
30539;SDS011;17321;46.312;4.776;2023-05-27T03:14:05;12.77;;;7.55;;
30539;SDS011;17321;46.312;4.776;2023-05-27T03:16:31;13.68;;;7.57;;
30539;SDS011;17321;46.312;4.776;2023-05-27T03:18:57;13.82;;;7.75;;
30539;SDS011;17321;46.312;4.776;2023-05-27T03:21:23;13.90;;;8.05;;
30539;SDS011;17321;46.312;4.776;2023-05-27T03:23:50;12.63;;;7.35;;
30539;SDS011;17321;46.312;4.776;2023-05-27T03:26:16;13.30;;;7.55;;
30539;SDS011;17321;46.312;4.776;2023-05-27T03:28:42;15.40;;;7.30;;
30539;SDS011;17321;46.312;4.776;2023-05-27T03:31:08;13.20;;;8.18;;
30539;SDS011;17321;46.312;4.776;2023-05-27T03:33:37;19.60;;;8.35;;
30539;SDS011;17321;46.312;4.776;2023-05-27T03:36:04;12.77;;;6.63;;
30539;SDS011;17321;46.312;4.776;2023-05-27T03:38:30;17.23;;;7.57;;
30539;SDS011;17321;46.312;4.776;2023-05-27T03:40:56;11.27;;;7.60;;
30539;SDS011;17321;46.312;4.776;2023-05-27T03:43:22;10.35;;;6.88;;
30539;SDS011;17321;46.312;4.776;2023-05-27T03:45:49;16.33;;;8.10;;
30539;SDS011;17321;46.312;4.776;2023-05-27T03:48:15;13.20;;;7.88;;
30539;SDS011;17321;46.312;4.776;2023-05-27T03:50:41;18.70;;;7.88;;
30539;SDS011;17321;46.312;4.776;2023-05-27T03:53:07;10.57;;;6.65;;
30539;SDS011;17321;46.312;4.776;2023-05-27T03:55:33;17.05;;;7.13;;
30539;SDS011;17321;46.312;4.776;2023-05-27T03:57:59;13.85;;;7.53;;
30539;SDS011;17321;46.312;4.776;2023-05-27T04:00:25;13.40;;;7.35;;
30539;SDS011;17321;46.312;4.776;2023-05-27T04:02:53;13.63;;;8.05;;
30539;SDS011;17321;46.312;4.776;2023-05-27T04:05:21;9.07;;;7.10;;
30539;SDS011;17321;46.312;4.776;2023-05-27T04:07:47;14.43;;;7.72;;
30539;SDS011;17321;46.312;4.776;2023-05-27T04:10:13;13.65;;;7.38;;
30539;SDS011;17321;46.312;4.776;2023-05-27T04:12:39;17.13;;;7.90;;
30539;SDS011;17321;46.312;4.776;2023-05-27T04:15:06;14.25;;;7.57;;
30539;SDS011;17321;46.312;4.776;2023-05-27T04:17:33;11.43;;;6.88;;
30539;SDS011;17321;46.312;4.776;2023-05-27T04:20:00;13.30;;;7.22;;
30539;SDS011;17321;46.312;4.776;2023-05-27T04:22:26;11.75;;;7.30;;
30539;SDS011;17321;46.312;4.776;2023-05-27T04:24:52;14.73;;;7.65;;
30539;SDS011;17321;46.312;4.776;2023-05-27T04:27:18;15.40;;;7.15;;
30539;SDS011;17321;46.312;4.776;2023-05-27T04:29:45;13.85;;;7.28;;
30539;SDS011;17321;46.312;4.776;2023-05-27T04:32:12;20.05;;;7.22;;
30539;SDS011;17321;46.312;4.776;2023-05-27T04:34:38;12.55;;;6.75;;
30539;SDS011;17321;46.312;4.776;2023-05-27T04:37:07;13.32;;;7.68;;
30539;SDS011;17321;46.312;4.776;2023-05-27T04:39:35;11.23;;;7.20;;
30539;SDS011;17321;46.312;4.776;2023-05-27T04:42:01;11.75;;;7.25;;
30539;SDS011;17321;46.312;4.776;2023-05-27T04:44:27;14.70;;;7.43;;
30539;SDS011;17321;46.312;4.776;2023-05-27T04:46:54;16.77;;;7.55;;
30539;SDS011;17321;46.312;4.776;2023-05-27T04:49:20;14.65;;;7.35;;
30539;SDS011;17321;46.312;4.776;2023-05-27T04:51:47;14.40;;;7.40;;
30539;SDS011;17321;46.312;4.776;2023-05-27T04:54:13;13.90;;;7.95;;
30539;SDS011;17321;46.312;4.776;2023-05-27T04:56:39;13.50;;;6.97;;
30539;SDS011;17321;46.312;4.776;2023-05-27T04:59:05;12.30;;;6.65;;
30539;SDS011;17321;46.312;4.776;2023-05-27T05:01:31;12.20;;;7.75;;
30539;SDS011;17321;46.312;4.776;2023-05-27T05:04:14;14.90;;;7.85;;
30539;SDS011;17321;46.312;4.776;2023-05-27T05:06:40;12.88;;;8.07;;
30539;SDS011;17321;46.312;4.776;2023-05-27T05:09:08;15.88;;;6.75;;
30539;SDS011;17321;46.312;4.776;2023-05-27T05:11:36;19.55;;;7.30;;
30539;SDS011;17321;46.312;4.776;2023-05-27T05:14:03;17.88;;;8.25;;
30539;SDS011;17321;46.312;4.776;2023-05-27T05:16:29;18.05;;;7.47;;
30539;SDS011;17321;46.312;4.776;2023-05-27T05:18:55;16.27;;;7.55;;
30539;SDS011;17321;46.312;4.776;2023-05-27T05:21:22;13.95;;;7.32;;
30539;SDS011;17321;46.312;4.776;2023-05-27T05:23:48;13.30;;;6.40;;
30539;SDS011;17321;46.312;4.776;2023-05-27T05:26:14;16.73;;;7.20;;
30539;SDS011;17321;46.312;4.776;2023-05-27T05:28:40;14.13;;;6.70;;
30539;SDS011;17321;46.312;4.776;2023-05-27T05:31:06;11.70;;;6.80;;
30539;SDS011;17321;46.312;4.776;2023-05-27T05:33:32;16.75;;;8.13;;
30539;SDS011;17321;46.312;4.776;2023-05-27T05:35:58;16.35;;;7.22;;
30539;SDS011;17321;46.312;4.776;2023-05-27T05:38:25;12.75;;;6.55;;
30539;SDS011;17321;46.312;4.776;2023-05-27T05:40:51;11.93;;;6.38;;
30539;SDS011;17321;46.312;4.776;2023-05-27T05:43:19;20.67;;;7.22;;
30539;SDS011;17321;46.312;4.776;2023-05-27T05:45:45;11.18;;;6.50;;
30539;SDS011;17321;46.312;4.776;2023-05-27T05:48:11;12.88;;;6.22;;
30539;SDS011;17321;46.312;4.776;2023-05-27T05:50:37;13.35;;;7.50;;
30539;SDS011;17321;46.312;4.776;2023-05-27T05:53:04;13.63;;;6.82;;
30539;SDS011;17321;46.312;4.776;2023-05-27T05:55:30;10.30;;;5.95;;
30539;SDS011;17321;46.312;4.776;2023-05-27T05:57:56;13.70;;;6.38;;
30539;SDS011;17321;46.312;4.776;2023-05-27T06:00:22;12.18;;;7.45;;
30539;SDS011;17321;46.312;4.776;2023-05-27T06:02:49;14.02;;;7.43;;
30539;SDS011;17321;46.312;4.776;2023-05-27T06:05:15;12.82;;;6.80;;
30539;SDS011;17321;46.312;4.776;2023-05-27T06:07:41;12.55;;;6.10;;
30539;SDS011;17321;46.312;4.776;2023-05-27T06:10:07;27.80;;;7.28;;
30539;SDS011;17321;46.312;4.776;2023-05-27T06:12:34;10.93;;;5.97;;
30539;SDS011;17321;46.312;4.776;2023-05-27T06:15:01;20.13;;;6.15;;
30539;SDS011;17321;46.312;4.776;2023-05-27T06:17:27;14.38;;;6.82;;
30539;SDS011;17321;46.312;4.776;2023-05-27T06:19:53;11.95;;;6.60;;
30539;SDS011;17321;46.312;4.776;2023-05-27T06:22:19;19.83;;;7.15;;
30539;SDS011;17321;46.312;4.776;2023-05-27T06:24:45;16.88;;;6.57;;
30539;SDS011;17321;46.312;4.776;2023-05-27T06:27:11;12.50;;;5.95;;
30539;SDS011;17321;46.312;4.776;2023-05-27T06:29:37;13.77;;;6.88;;
30539;SDS011;17321;46.312;4.776;2023-05-27T06:32:03;14.57;;;7.07;;
30539;SDS011;17321;46.312;4.776;2023-05-27T06:34:30;9.38;;;6.05;;
30539;SDS011;17321;46.312;4.776;2023-05-27T06:36:56;9.73;;;6.45;;
30539;SDS011;17321;46.312;4.776;2023-05-27T06:39:22;13.57;;;6.30;;
30539;SDS011;17321;46.312;4.776;2023-05-27T06:41:48;16.00;;;6.50;;
30539;SDS011;17321;46.312;4.776;2023-05-27T06:44:14;16.35;;;7.25;;
30539;SDS011;17321;46.312;4.776;2023-05-27T06:46:40;17.40;;;7.25;;
30539;SDS011;17321;46.312;4.776;2023-05-27T06:49:07;18.42;;;7.03;;
30539;SDS011;17321;46.312;4.776;2023-05-27T06:51:33;11.45;;;6.63;;
30539;SDS011;17321;46.312;4.776;2023-05-27T06:54:00;13.55;;;6.78;;
30539;SDS011;17321;46.312;4.776;2023-05-27T06:56:26;18.10;;;6.38;;
30539;SDS011;17321;46.312;4.776;2023-05-27T06:58:52;9.45;;;5.75;;
30539;SDS011;17321;46.312;4.776;2023-05-27T07:01:18;11.18;;;6.72;;
30539;SDS011;17321;46.312;4.776;2023-05-27T07:03:46;13.68;;;6.60;;
30539;SDS011;17321;46.312;4.776;2023-05-27T07:06:12;10.02;;;6.20;;
30539;SDS011;17321;46.312;4.776;2023-05-27T07:08:38;15.95;;;6.90;;
30539;SDS011;17321;46.312;4.776;2023-05-27T07:11:04;15.30;;;6.47;;
30539;SDS011;17321;46.312;4.776;2023-05-27T07:13:30;16.83;;;6.32;;
30539;SDS011;17321;46.312;4.776;2023-05-27T07:15:56;12.15;;;7.03;;
30539;SDS011;17321;46.312;4.776;2023-05-27T07:18:22;8.52;;;6.15;;
30539;SDS011;17321;46.312;4.776;2023-05-27T07:20:48;16.52;;;6.82;;
30539;SDS011;17321;46.312;4.776;2023-05-27T07:23:15;14.63;;;5.93;;
30539;SDS011;17321;46.312;4.776;2023-05-27T07:25:41;14.30;;;7.47;;
30539;SDS011;17321;46.312;4.776;2023-05-27T07:28:07;16.52;;;7.20;;
30539;SDS011;17321;46.312;4.776;2023-05-27T07:30:33;13.02;;;6.05;;
30539;SDS011;17321;46.312;4.776;2023-05-27T07:32:59;14.70;;;6.00;;
30539;SDS011;17321;46.312;4.776;2023-05-27T07:35:25;18.83;;;6.55;;
30539;SDS011;17321;46.312;4.776;2023-05-27T07:37:51;11.27;;;6.00;;
30539;SDS011;17321;46.312;4.776;2023-05-27T07:40:18;11.10;;;6.30;;
30539;SDS011;17321;46.312;4.776;2023-05-27T07:42:44;13.98;;;6.97;;
30539;SDS011;17321;46.312;4.776;2023-05-27T07:45:10;10.68;;;6.20;;
30539;SDS011;17321;46.312;4.776;2023-05-27T07:47:37;12.38;;;6.10;;
30539;SDS011;17321;46.312;4.776;2023-05-27T07:50:03;9.45;;;6.15;;
30539;SDS011;17321;46.312;4.776;2023-05-27T07:52:29;12.98;;;6.40;;
30539;SDS011;17321;46.312;4.776;2023-05-27T07:54:55;18.15;;;6.43;;
30539;SDS011;17321;46.312;4.776;2023-05-27T07:57:22;10.50;;;5.85;;
30539;SDS011;17321;46.312;4.776;2023-05-27T07:59:48;12.32;;;5.55;;
30539;SDS011;17321;46.312;4.776;2023-05-27T08:02:15;12.45;;;6.18;;
30539;SDS011;17321;46.312;4.776;2023-05-27T08:04:41;15.15;;;6.07;;
30539;SDS011;17321;46.312;4.776;2023-05-27T08:07:08;16.13;;;6.25;;
30539;SDS011;17321;46.312;4.776;2023-05-27T08:09:34;16.33;;;6.38;;
30539;SDS011;17321;46.312;4.776;2023-05-27T08:12:00;19.20;;;6.80;;
30539;SDS011;17321;46.312;4.776;2023-05-27T08:14:27;13.25;;;6.07;;
30539;SDS011;17321;46.312;4.776;2023-05-27T08:16:53;14.82;;;6.13;;
30539;SDS011;17321;46.312;4.776;2023-05-27T08:19:20;11.15;;;6.15;;
30539;SDS011;17321;46.312;4.776;2023-05-27T08:21:46;14.88;;;6.03;;
30539;SDS011;17321;46.312;4.776;2023-05-27T08:24:12;16.55;;;6.95;;
30539;SDS011;17321;46.312;4.776;2023-05-27T08:26:39;13.00;;;7.22;;
30539;SDS011;17321;46.312;4.776;2023-05-27T08:29:05;10.73;;;6.22;;
30539;SDS011;17321;46.312;4.776;2023-05-27T08:31:32;16.45;;;6.00;;
30539;SDS011;17321;46.312;4.776;2023-05-27T08:33:58;10.43;;;5.93;;
30539;SDS011;17321;46.312;4.776;2023-05-27T08:36:24;8.68;;;5.80;;
30539;SDS011;17321;46.312;4.776;2023-05-27T08:38:50;10.98;;;5.85;;
30539;SDS011;17321;46.312;4.776;2023-05-27T08:41:16;16.17;;;8.55;;
30539;SDS011;17321;46.312;4.776;2023-05-27T08:43:43;11.85;;;6.15;;
30539;SDS011;17321;46.312;4.776;2023-05-27T08:46:10;12.55;;;5.85;;
30539;SDS011;17321;46.312;4.776;2023-05-27T08:48:36;12.02;;;6.20;;
30539;SDS011;17321;46.312;4.776;2023-05-27T08:51:02;15.18;;;6.25;;
30539;SDS011;17321;46.312;4.776;2023-05-27T08:53:29;10.10;;;5.88;;
30539;SDS011;17321;46.312;4.776;2023-05-27T08:55:57;12.98;;;6.45;;
30539;SDS011;17321;46.312;4.776;2023-05-27T08:58:23;11.70;;;6.43;;
30539;SDS011;17321;46.312;4.776;2023-05-27T09:00:50;14.80;;;6.43;;
30539;SDS011;17321;46.312;4.776;2023-05-27T09:03:16;12.82;;;6.07;;
30539;SDS011;17321;46.312;4.776;2023-05-27T09:05:42;13.18;;;5.78;;
30539;SDS011;17321;46.312;4.776;2023-05-27T09:08:08;17.90;;;6.05;;
30539;SDS011;17321;46.312;4.776;2023-05-27T09:10:35;9.85;;;6.05;;
30539;SDS011;17321;46.312;4.776;2023-05-27T09:13:01;11.90;;;6.60;;
30539;SDS011;17321;46.312;4.776;2023-05-27T09:15:27;13.85;;;6.53;;
30539;SDS011;17321;46.312;4.776;2023-05-27T09:17:53;21.58;;;5.90;;
30539;SDS011;17321;46.312;4.776;2023-05-27T09:20:26;12.43;;;5.82;;
30539;SDS011;17321;46.312;4.776;2023-05-27T09:22:56;10.57;;;6.07;;
30539;SDS011;17321;46.312;4.776;2023-05-27T09:25:26;16.50;;;6.32;;
30539;SDS011;17321;46.312;4.776;2023-05-27T09:27:53;12.57;;;5.30;;
30539;SDS011;17321;46.312;4.776;2023-05-27T09:30:19;13.50;;;5.90;;
30539;SDS011;17321;46.312;4.776;2023-05-27T09:32:46;11.27;;;6.20;;
30539;SDS011;17321;46.312;4.776;2023-05-27T09:35:12;17.10;;;6.28;;
30539;SDS011;17321;46.312;4.776;2023-05-27T09:37:38;10.27;;;5.65;;
30539;SDS011;17321;46.312;4.776;2023-05-27T09:40:06;13.32;;;6.25;;
30539;SDS011;17321;46.312;4.776;2023-05-27T09:42:46;11.77;;;6.00;;
30539;SDS011;17321;46.312;4.776;2023-05-27T09:45:19;9.38;;;6.07;;
30539;SDS011;17321;46.312;4.776;2023-05-27T09:47:49;18.20;;;6.70;;
30539;SDS011;17321;46.312;4.776;2023-05-27T09:50:16;11.80;;;6.03;;
30539;SDS011;17321;46.312;4.776;2023-05-27T09:52:43;11.07;;;6.45;;
30539;SDS011;17321;46.312;4.776;2023-05-27T09:55:10;12.88;;;5.90;;
30539;SDS011;17321;46.312;4.776;2023-05-27T09:57:39;12.65;;;5.85;;
30539;SDS011;17321;46.312;4.776;2023-05-27T10:00:06;10.32;;;5.97;;
30539;SDS011;17321;46.312;4.776;2023-05-27T10:02:42;13.07;;;5.75;;
30539;SDS011;17321;46.312;4.776;2023-05-27T10:05:11;9.75;;;5.65;;
30539;SDS011;17321;46.312;4.776;2023-05-27T10:07:38;10.15;;;5.97;;
30539;SDS011;17321;46.312;4.776;2023-05-27T10:10:08;9.40;;;5.78;;
30539;SDS011;17321;46.312;4.776;2023-05-27T10:12:41;11.32;;;6.25;;
30539;SDS011;17321;46.312;4.776;2023-05-27T10:15:08;10.27;;;5.63;;
30539;SDS011;17321;46.312;4.776;2023-05-27T10:17:47;11.32;;;6.20;;
30539;SDS011;17321;46.312;4.776;2023-05-27T10:25:46;8.63;;;5.53;;
30539;SDS011;17321;46.312;4.776;2023-05-27T10:31:03;14.50;;;6.32;;
30539;SDS011;17321;46.312;4.776;2023-05-27T10:33:30;8.25;;;5.40;;
30539;SDS011;17321;46.312;4.776;2023-05-27T10:36:02;9.63;;;5.85;;
30539;SDS011;17321;46.312;4.776;2023-05-27T10:38:28;11.05;;;5.05;;
30539;SDS011;17321;46.312;4.776;2023-05-27T10:40:58;9.40;;;5.60;;
30539;SDS011;17321;46.312;4.776;2023-05-27T10:43:27;13.68;;;5.82;;
30539;SDS011;17321;46.312;4.776;2023-05-27T10:46:03;8.88;;;5.05;;
30539;SDS011;17321;46.312;4.776;2023-05-27T10:48:30;11.18;;;6.07;;
30539;SDS011;17321;46.312;4.776;2023-05-27T10:50:58;7.97;;;5.55;;
30539;SDS011;17321;46.312;4.776;2023-05-27T10:53:27;11.15;;;6.00;;
30539;SDS011;17321;46.312;4.776;2023-05-27T10:55:54;9.18;;;6.50;;
30539;SDS011;17321;46.312;4.776;2023-05-27T10:58:21;11.98;;;6.18;;
30539;SDS011;17321;46.312;4.776;2023-05-27T11:00:47;11.63;;;5.70;;
30539;SDS011;17321;46.312;4.776;2023-05-27T11:03:24;10.65;;;6.10;;
30539;SDS011;17321;46.312;4.776;2023-05-27T11:08:23;10.68;;;5.68;;
30539;SDS011;17321;46.312;4.776;2023-05-27T11:10:50;14.70;;;6.20;;
30539;SDS011;17321;46.312;4.776;2023-05-27T11:13:16;8.65;;;5.43;;
30539;SDS011;17321;46.312;4.776;2023-05-27T11:15:42;22.58;;;6.68;;
30539;SDS011;17321;46.312;4.776;2023-05-27T11:18:09;11.18;;;5.40;;
30539;SDS011;17321;46.312;4.776;2023-05-27T11:20:38;9.40;;;5.60;;
30539;SDS011;17321;46.312;4.776;2023-05-27T11:23:04;11.57;;;5.78;;
30539;SDS011;17321;46.312;4.776;2023-05-27T11:25:43;14.18;;;5.50;;
30539;SDS011;17321;46.312;4.776;2023-05-27T11:28:18;11.38;;;6.50;;
30539;SDS011;17321;46.312;4.776;2023-05-27T11:30:44;9.20;;;5.47;;
30539;SDS011;17321;46.312;4.776;2023-05-27T11:33:10;10.73;;;6.03;;
30539;SDS011;17321;46.312;4.776;2023-05-27T11:35:36;10.98;;;6.03;;
30539;SDS011;17321;46.312;4.776;2023-05-27T11:38:03;12.35;;;5.63;;
30539;SDS011;17321;46.312;4.776;2023-05-27T11:40:35;13.07;;;5.82;;
30539;SDS011;17321;46.312;4.776;2023-05-27T11:43:02;16.10;;;5.68;;
30539;SDS011;17321;46.312;4.776;2023-05-27T11:45:28;10.82;;;5.90;;
30539;SDS011;17321;46.312;4.776;2023-05-27T11:47:56;7.95;;;5.75;;
30539;SDS011;17321;46.312;4.776;2023-05-27T11:50:22;10.32;;;6.10;;
30539;SDS011;17321;46.312;4.776;2023-05-27T11:52:56;12.02;;;5.60;;
30539;SDS011;17321;46.312;4.776;2023-05-27T11:55:23;7.82;;;5.10;;
30539;SDS011;17321;46.312;4.776;2023-05-27T11:57:49;9.52;;;5.40;;
30539;SDS011;17321;46.312;4.776;2023-05-27T12:00:15;11.50;;;5.30;;
30539;SDS011;17321;46.312;4.776;2023-05-27T12:02:43;8.98;;;5.78;;
30539;SDS011;17321;46.312;4.776;2023-05-27T12:05:09;9.98;;;5.68;;
30539;SDS011;17321;46.312;4.776;2023-05-27T12:07:36;10.70;;;5.75;;
30539;SDS011;17321;46.312;4.776;2023-05-27T12:10:08;9.18;;;5.28;;
30539;SDS011;17321;46.312;4.776;2023-05-27T12:12:35;10.48;;;4.90;;
30539;SDS011;17321;46.312;4.776;2023-05-27T12:15:04;12.15;;;5.45;;
30539;SDS011;17321;46.312;4.776;2023-05-27T12:17:31;10.60;;;5.22;;
30539;SDS011;17321;46.312;4.776;2023-05-27T12:19:57;9.82;;;4.88;;
30539;SDS011;17321;46.312;4.776;2023-05-27T12:22:23;13.02;;;4.90;;
30539;SDS011;17321;46.312;4.776;2023-05-27T12:24:49;8.63;;;4.82;;
30539;SDS011;17321;46.312;4.776;2023-05-27T12:27:17;10.63;;;5.43;;
30539;SDS011;17321;46.312;4.776;2023-05-27T12:29:43;8.43;;;5.60;;
30539;SDS011;17321;46.312;4.776;2023-05-27T12:32:09;8.57;;;4.82;;
30539;SDS011;17321;46.312;4.776;2023-05-27T12:34:35;7.53;;;5.03;;
30539;SDS011;17321;46.312;4.776;2023-05-27T12:37:02;10.18;;;5.28;;
30539;SDS011;17321;46.312;4.776;2023-05-27T12:39:28;15.80;;;5.43;;
30539;SDS011;17321;46.312;4.776;2023-05-27T12:41:54;11.90;;;5.82;;
30539;SDS011;17321;46.312;4.776;2023-05-27T12:44:20;8.88;;;5.40;;
30539;SDS011;17321;46.312;4.776;2023-05-27T12:46:46;10.75;;;5.25;;
30539;SDS011;17321;46.312;4.776;2023-05-27T12:49:12;8.95;;;5.18;;
30539;SDS011;17321;46.312;4.776;2023-05-27T12:51:38;10.63;;;5.30;;
30539;SDS011;17321;46.312;4.776;2023-05-27T12:54:05;13.18;;;5.30;;
30539;SDS011;17321;46.312;4.776;2023-05-27T12:56:31;6.95;;;5.43;;
30539;SDS011;17321;46.312;4.776;2023-05-27T12:58:57;10.85;;;5.25;;
30539;SDS011;17321;46.312;4.776;2023-05-27T13:01:23;10.40;;;4.72;;
30539;SDS011;17321;46.312;4.776;2023-05-27T13:03:49;8.98;;;5.35;;
30539;SDS011;17321;46.312;4.776;2023-05-27T13:06:16;11.13;;;5.82;;
30539;SDS011;17321;46.312;4.776;2023-05-27T13:08:42;8.35;;;4.82;;
30539;SDS011;17321;46.312;4.776;2023-05-27T13:11:08;18.98;;;5.70;;
30539;SDS011;17321;46.312;4.776;2023-05-27T13:13:34;9.20;;;5.15;;
30539;SDS011;17321;46.312;4.776;2023-05-27T13:16:01;6.88;;;4.75;;
30539;SDS011;17321;46.312;4.776;2023-05-27T13:18:27;7.93;;;5.40;;
30539;SDS011;17321;46.312;4.776;2023-05-27T13:20:53;10.00;;;4.90;;
30539;SDS011;17321;46.312;4.776;2023-05-27T13:23:19;8.10;;;4.82;;
30539;SDS011;17321;46.312;4.776;2023-05-27T13:25:47;9.80;;;5.05;;
30539;SDS011;17321;46.312;4.776;2023-05-27T13:28:13;13.57;;;5.53;;
30539;SDS011;17321;46.312;4.776;2023-05-27T13:30:39;13.38;;;5.90;;
30539;SDS011;17321;46.312;4.776;2023-05-27T13:33:05;9.18;;;5.15;;
30539;SDS011;17321;46.312;4.776;2023-05-27T13:35:31;11.55;;;5.28;;
30539;SDS011;17321;46.312;4.776;2023-05-27T13:37:58;8.50;;;5.00;;
30539;SDS011;17321;46.312;4.776;2023-05-27T13:40:25;11.30;;;5.32;;
30539;SDS011;17321;46.312;4.776;2023-05-27T13:42:51;10.30;;;5.10;;
30539;SDS011;17321;46.312;4.776;2023-05-27T13:45:17;16.30;;;5.65;;
30539;SDS011;17321;46.312;4.776;2023-05-27T13:47:43;10.40;;;5.55;;
30539;SDS011;17321;46.312;4.776;2023-05-27T13:50:09;14.95;;;5.22;;
30539;SDS011;17321;46.312;4.776;2023-05-27T13:52:36;7.07;;;4.07;;
30539;SDS011;17321;46.312;4.776;2023-05-27T13:55:02;8.38;;;5.00;;
30539;SDS011;17321;46.312;4.776;2023-05-27T13:57:29;13.27;;;5.38;;
30539;SDS011;17321;46.312;4.776;2023-05-27T13:59:55;9.52;;;4.43;;
30539;SDS011;17321;46.312;4.776;2023-05-27T14:02:21;11.13;;;4.95;;
30539;SDS011;17321;46.312;4.776;2023-05-27T14:04:47;11.43;;;4.82;;
30539;SDS011;17321;46.312;4.776;2023-05-27T14:07:13;9.70;;;5.47;;
30539;SDS011;17321;46.312;4.776;2023-05-27T14:09:39;16.00;;;5.55;;
30539;SDS011;17321;46.312;4.776;2023-05-27T14:12:06;7.20;;;5.35;;
30539;SDS011;17321;46.312;4.776;2023-05-27T14:14:33;14.18;;;5.57;;
30539;SDS011;17321;46.312;4.776;2023-05-27T14:17:01;7.70;;;5.25;;
30539;SDS011;17321;46.312;4.776;2023-05-27T14:19:27;10.13;;;5.53;;
30539;SDS011;17321;46.312;4.776;2023-05-27T14:21:53;10.80;;;5.30;;
30539;SDS011;17321;46.312;4.776;2023-05-27T14:24:19;9.27;;;4.95;;
30539;SDS011;17321;46.312;4.776;2023-05-27T14:26:45;9.43;;;4.85;;
30539;SDS011;17321;46.312;4.776;2023-05-27T14:29:12;13.88;;;4.70;;
30539;SDS011;17321;46.312;4.776;2023-05-27T14:31:38;7.00;;;4.20;;
30539;SDS011;17321;46.312;4.776;2023-05-27T14:34:04;6.82;;;4.28;;
30539;SDS011;17321;46.312;4.776;2023-05-27T14:36:30;9.15;;;4.30;;
30539;SDS011;17321;46.312;4.776;2023-05-27T14:38:56;10.60;;;4.20;;
30539;SDS011;17321;46.312;4.776;2023-05-27T14:41:23;11.35;;;5.35;;
30539;SDS011;17321;46.312;4.776;2023-05-27T14:43:50;7.38;;;4.45;;
30539;SDS011;17321;46.312;4.776;2023-05-27T14:46:17;8.38;;;4.65;;
30539;SDS011;17321;46.312;4.776;2023-05-27T14:48:43;7.47;;;4.40;;